Time;durP1;ratioP1;P1;durP2;ratioP2;P2;SDS_P1;SDS_P2;PMS_P1;PMS_P2;Temp;Humidity;BMP_temperature;BMP_pressure;BME280_temperature;BME280_humidity;BME280_pressure;Samples;Min_cycle;Max_cycle;Signal;HPM_P1;HPM_P2
2021/12/09 00:03:07;;;;;;;11.35;7.20;;;;;;;4.49;45.82;99651.78;2413566;79;25973;-72
2021/12/09 00:10:13;;;;;;;10.55;7.62;;;;;;;4.49;45.89;99654.36;2451806;80;25237;-72
2021/12/09 00:13:35;;;;;;;9.03;7.12;;;;;;;4.49;45.92;99647.91;2454645;80;25702;-70
2021/12/09 00:17:18;;;;;;;8.05;6.83;;;;;;;4.50;45.98;99648.36;2451345;80;25846;-70
2021/12/09 00:20:39;;;;;;;11.45;7.28;;;;;;;4.50;45.99;99648.78;2450817;80;25711;-69
2021/12/09 00:24:17;;;;;;;11.05;7.03;;;;;;;4.51;46.03;99653.11;2452648;80;25860;-71
2021/12/09 00:27:52;;;;;;;14.50;8.03;;;;;;;4.52;46.08;99656.56;2445140;80;25773;-70
2021/12/09 00:31:09;;;;;;;10.03;7.87;;;;;;;4.53;46.12;99657.05;2452697;79;25718;-71
2021/12/09 00:34:41;;;;;;;11.65;7.97;;;;;;;4.53;46.15;99664.38;2449598;80;25631;-70
2021/12/09 00:42:39;;;;;;;10.40;7.53;;;;;;;4.52;46.21;99661.72;2456189;80;26142;-71
2021/12/09 00:46:01;;;;;;;11.17;7.20;;;;;;;4.51;46.24;99662.14;2340638;83;25709;-70
2021/12/09 00:49:22;;;;;;;11.03;7.00;;;;;;;4.50;46.28;99669.42;2351306;84;25985;-71
2021/12/09 00:52:44;;;;;;;10.13;8.03;;;;;;;4.49;46.30;99665.97;2352089;84;25778;-71
2021/12/09 00:56:08;;;;;;;9.63;7.33;;;;;;;4.49;46.30;99678.00;2352196;83;25677;-70
2021/12/09 00:59:29;;;;;;;8.75;7.42;;;;;;;4.46;46.31;99673.59;2366372;82;25828;-72
2021/12/09 01:02:53;;;;;;;8.80;7.12;;;;;;;4.46;46.32;99684.34;2339889;84;25806;-71
2021/12/09 01:06:15;;;;;;;8.70;6.80;;;;;;;4.43;46.35;99673.48;2339690;84;25737;-72
2021/12/09 01:09:36;;;;;;;8.75;6.72;;;;;;;4.42;46.36;99669.16;2337945;84;25693;-72
2021/12/09 01:12:57;;;;;;;9.53;7.50;;;;;;;4.40;46.36;99672.08;2338080;84;25545;-71
2021/12/09 01:16:18;;;;;;;11.80;7.30;;;;;;;4.38;46.35;99675.00;2339971;84;25749;-71
2021/12/09 01:19:40;;;;;;;9.30;7.47;;;;;;;4.36;46.34;99666.34;2339375;84;25892;-71
2021/12/09 01:23:03;;;;;;;9.20;7.47;;;;;;;4.35;46.34;99671.43;2339960;84;25726;-78
2021/12/09 01:26:26;;;;;;;9.70;7.50;;;;;;;4.31;46.37;99671.73;2305664;85;25692;-71
2021/12/09 01:29:53;;;;;;;11.08;7.33;;;;;;;4.30;46.38;99673.85;2323052;85;25814;-71
2021/12/09 01:33:13;;;;;;;8.98;7.20;;;;;;;4.30;46.39;99669.11;2326899;85;25676;-72
2021/12/09 01:36:36;;;;;;;10.68;7.33;;;;;;;4.28;46.38;99669.03;2323996;85;25813;-70
2021/12/09 01:39:57;;;;;;;9.10;6.92;;;;;;;4.25;46.40;99658.22;2323118;85;25702;-72
2021/12/09 01:43:21;;;;;;;10.90;7.13;;;;;;;4.23;46.46;99658.55;2438580;80;25664;-71
2021/12/09 01:46:42;;;;;;;9.08;7.53;;;;;;;4.22;46.45;99652.94;2391389;81;25853;-70
2021/12/09 01:50:04;;;;;;;10.30;7.22;;;;;;;4.21;46.48;99658.89;2391182;82;25665;-70
2021/12/09 01:53:26;;;;;;;9.50;7.58;;;;;;;4.20;46.53;99648.12;2391337;81;25646;-70
2021/12/09 01:56:47;;;;;;;12.80;7.53;;;;;;;4.20;46.53;99648.12;2406072;80;26459;-71
2021/12/09 02:00:13;;;;;;;11.43;7.17;;;;;;;4.21;46.54;99655.44;2444712;81;25680;-72
2021/12/09 02:03:35;;;;;;;9.70;7.53;;;;;;;4.20;46.57;99640.38;2442740;80;25705;-70
2021/12/09 02:06:56;;;;;;;10.80;8.18;;;;;;;4.20;46.58;99639.09;2440198;80;25711;-71
2021/12/09 02:10:22;;;;;;;12.23;7.12;;;;;;;4.21;46.59;99643.83;2443542;80;25708;-70
2021/12/09 02:13:46;;;;;;;9.78;7.87;;;;;;;4.22;46.61;99639.16;2443766;80;25685;-71
2021/12/09 02:17:08;;;;;;;11.30;8.58;;;;;;;4.21;46.58;99629.23;2444622;80;25673;-71
2021/12/09 02:20:32;;;;;;;10.55;8.33;;;;;;;4.20;46.58;99635.63;2427224;80;25609;-71
2021/12/09 02:23:58;;;;;;;11.63;8.20;;;;;;;4.21;46.60;99630.94;2374017;82;25678;-71
2021/12/09 02:27:23;;;;;;;11.45;7.97;;;;;;;4.19;46.62;99625.73;2445902;80;25875;-71
2021/12/09 02:30:45;;;;;;;10.68;7.67;;;;;;;4.21;46.64;99638.25;2449822;79;25693;-73
2021/12/09 02:34:07;;;;;;;10.55;8.40;;;;;;;4.22;46.65;99639.16;2450286;80;25642;-71
2021/12/09 02:37:28;;;;;;;11.95;7.58;;;;;;;4.23;46.66;99636.63;2503846;79;25599;-74
2021/12/09 02:40:52;;;;;;;13.90;8.23;;;;;;;4.23;46.69;99629.30;2501663;79;26227;-70
2021/12/09 02:44:18;;;;;;;11.95;7.97;;;;;;;4.25;46.66;99616.94;2481162;79;25579;-70
2021/12/09 02:47:40;;;;;;;11.88;8.05;;;;;;;4.25;46.68;99613.45;2504303;78;25615;-70
2021/12/09 02:51:04;;;;;;;10.93;7.72;;;;;;;4.24;46.68;99604.83;2503539;78;25655;-71
2021/12/09 02:54:26;;;;;;;11.48;8.18;;;;;;;4.24;46.69;99600.97;2504380;78;25874;-71
2021/12/09 02:57:53;;;;;;;11.88;7.78;;;;;;;4.24;46.71;99593.22;2474271;78;25763;-72
2021/12/09 03:01:24;;;;;;;12.23;8.83;;;;;;;4.26;46.72;99586.43;2443304;79;25633;-71
2021/12/09 03:04:50;;;;;;;11.70;7.80;;;;;;;4.25;46.70;99583.78;2443769;80;25590;-72
2021/12/09 03:08:11;;;;;;;10.75;8.30;;;;;;;4.26;46.77;99597.16;2443344;80;25618;-72
2021/12/09 03:11:32;;;;;;;12.85;8.05;;;;;;;4.25;46.75;99598.88;2443302;80;25672;-71
2021/12/09 03:14:54;;;;;;;10.43;8.70;;;;;;;4.25;46.77;99596.68;2476509;79;25647;-70
2021/12/09 03:18:15;;;;;;;13.13;8.83;;;;;;;4.25;46.77;99595.00;2472429;79;25617;-71
2021/12/09 03:21:43;;;;;;;9.50;7.85;;;;;;;4.25;46.75;99591.13;2472385;79;25608;-71
2021/12/09 03:25:11;;;;;;;10.78;7.90;;;;;;;4.25;46.77;99587.65;2469901;80;25191;-71
2021/12/09 03:28:35;;;;;;;9.87;7.27;;;;;;;4.24;46.77;99606.13;2471969;79;25580;-70
2021/12/09 03:32:01;;;;;;;11.43;8.28;;;;;;;4.23;46.77;99592.77;2472101;79;25636;-72
2021/12/09 03:35:22;;;;;;;11.88;8.08;;;;;;;4.22;46.77;99598.76;2472920;78;26248;-71
2021/12/09 03:38:44;;;;;;;8.98;7.53;;;;;;;4.22;46.77;99596.18;2471028;79;25621;-71
2021/12/09 03:42:08;;;;;;;9.43;8.03;;;;;;;4.20;46.78;99591.36;2472695;79;25602;-72
2021/12/09 03:45:29;;;;;;;9.73;8.03;;;;;;;4.19;46.82;99588.33;2450021;80;25621;-71
2021/12/09 03:48:51;;;;;;;9.05;8.15;;;;;;;4.21;46.83;99590.53;2472075;80;25692;-71
2021/12/09 03:52:13;;;;;;;12.73;9.70;;;;;;;4.20;46.82;99591.78;2472674;80;25590;-70
2021/12/09 03:55:34;;;;;;;10.58;7.50;;;;;;;4.19;46.81;99598.64;2472728;79;25630;-70
2021/12/09 03:58:56;;;;;;;9.13;8.00;;;;;;;4.19;46.81;99593.90;2517542;77;25629;-71
2021/12/09 04:02:20;;;;;;;8.85;7.95;;;;;;;4.19;46.82;99593.48;2538864;77;25544;-71
2021/12/09 04:05:41;;;;;;;9.70;7.47;;;;;;;4.18;46.81;99602.44;2542170;77;26298;-72
2021/12/09 04:09:07;;;;;;;9.60;7.25;;;;;;;4.17;46.80;99601.56;2542520;77;25714;-72
2021/12/09 04:12:28;;;;;;;11.75;7.47;;;;;;;4.16;46.79;99591.20;2542558;77;25623;-71
2021/12/09 04:15:49;;;;;;;11.53;8.60;;;;;;;4.14;46.79;99594.12;2542278;77;26393;-72
2021/12/09 04:19:14;;;;;;;10.60;8.17;;;;;;;4.14;46.77;99587.27;2542132;77;25707;-72
2021/12/09 04:22:37;;;;;;;10.70;8.30;;;;;;;4.12;46.77;99603.12;2542608;77;25618;-71
2021/12/09 04:25:59;;;;;;;9.80;7.85;;;;;;;4.12;46.79;99609.98;2542656;77;25515;-71
2021/12/09 04:29:21;;;;;;;9.60;8.10;;;;;;;4.12;46.77;99615.14;2540820;77;25622;-71
2021/12/09 04:32:43;;;;;;;10.32;8.35;;;;;;;4.09;46.76;99613.73;2538197;77;25872;-71
2021/12/09 04:36:04;;;;;;;10.85;8.93;;;;;;;4.07;46.73;99624.39;2538050;77;25652;-71
2021/12/09 04:39:38;;;;;;;10.95;7.60;;;;;;;4.05;46.70;99624.73;2540639;77;25552;-71
2021/12/09 04:43:04;;;;;;;9.03;7.78;;;;;;;4.03;46.70;99623.41;2399972;82;25877;-71
2021/12/09 04:46:28;;;;;;;9.80;8.13;;;;;;;4.01;46.69;99621.16;2400099;82;25642;-71
2021/12/09 04:49:49;;;;;;;9.08;6.60;;;;;;;4.00;46.75;99631.89;2404496;82;25588;-71
2021/12/09 04:53:11;;;;;;;14.25;7.83;;;;;;;3.99;46.75;99638.30;2406036;82;25691;-71
2021/12/09 04:56:34;;;;;;;8.03;7.22;;;;;;;3.99;46.72;99625.41;2404322;82;25831;-71
2021/12/09 04:59:55;;;;;;;9.05;7.70;;;;;;;3.99;46.70;99629.27;2402785;81;25726;-71
2021/12/09 05:03:19;;;;;;;11.75;7.92;;;;;;;3.96;46.69;99618.42;2402395;82;25734;-72
2021/12/09 05:06:46;;;;;;;9.70;7.22;;;;;;;3.96;46.69;99630.44;2403213;82;25645;-71
2021/12/09 05:10:07;;;;;;;10.90;7.20;;;;;;;3.95;46.68;99638.59;2402351;80;26079;-72
2021/12/09 05:13:32;;;;;;;8.05;7.20;;;;;;;3.95;46.70;99637.72;2403595;82;25772;-71
2021/12/09 05:16:55;;;;;;;10.28;7.30;;;;;;;3.95;46.71;99640.30;2401176;82;25680;-70
2021/12/09 05:20:25;;;;;;;7.92;7.10;;;;;;;3.94;46.69;99630.78;2402259;82;25769;-70
2021/12/09 05:23:49;;;;;;;7.35;6.37;;;;;;;3.94;46.73;99626.91;2401986;82;25726;-72
2021/12/09 05:27:13;;;;;;;8.55;7.72;;;;;;;3.91;46.69;99621.22;2406016;82;25286;-71
2021/12/09 05:33:58;;;;;;;9.05;7.08;;;;;;;3.90;46.65;99630.20;2407029;82;25615;-70
2021/12/09 05:37:41;;;;;;;7.25;6.05;;;;;;;3.90;46.68;99640.52;2403851;80;25941;-70
2021/12/09 05:41:18;;;;;;;11.55;7.00;;;;;;;3.91;46.69;99625.51;2383586;82;25735;-71
2021/12/09 05:44:40;;;;;;;11.00;7.25;;;;;;;3.90;46.70;99641.39;2412018;80;25711;-71
2021/12/09 05:48:03;;;;;;;7.95;7.15;;;;;;;3.90;46.65;99625.92;2452880;80;25769;-71
2021/12/09 05:51:30;;;;;;;8.50;7.65;;;;;;;3.90;46.64;99618.60;2448746;80;26352;-71
2021/12/09 05:54:59;;;;;;;8.97;7.23;;;;;;;3.88;46.67;99639.57;2452835;80;26404;-78
2021/12/09 05:58:24;;;;;;;8.78;6.95;;;;;;;3.89;46.71;99643.92;2420190;80;25326;-72
2021/12/09 06:01:46;;;;;;;8.15;7.28;;;;;;;3.90;46.74;99645.27;2436633;81;25306;-70
2021/12/09 06:05:08;;;;;;;7.90;6.92;;;;;;;3.93;46.76;99644.51;2436507;81;25885;-73
2021/12/09 06:08:35;;;;;;;8.20;7.33;;;;;;;3.93;46.75;99632.48;2439282;81;25210;-71
2021/12/09 06:11:55;;;;;;;7.97;7.22;;;;;;;3.94;46.75;99635.52;2474229;78;25590;-71
2021/12/09 06:15:21;;;;;;;7.03;6.33;;;;;;;3.95;46.76;99636.02;2485482;79;25656;-71
2021/12/09 06:18:43;;;;;;;8.48;6.70;;;;;;;3.96;46.77;99631.31;2487168;78;25724;-73
2021/12/09 06:22:04;;;;;;;11.48;7.08;;;;;;;3.97;46.78;99629.61;2459042;79;25808;-70
2021/12/09 06:25:25;;;;;;;9.18;7.28;;;;;;;3.97;46.77;99629.61;2449683;79;25676;-74
2021/12/09 06:28:53;;;;;;;8.75;6.37;;;;;;;3.97;46.76;99621.88;2449714;80;25641;-71
2021/12/09 06:32:16;;;;;;;13.48;7.95;;;;;;;3.98;46.80;99623.62;2446411;80;25669;-71
2021/12/09 06:35:48;;;;;;;8.33;6.58;;;;;;;3.98;46.80;99611.64;2442526;79;25795;-72
2021/12/09 06:39:12;;;;;;;10.50;6.78;;;;;;;3.99;46.83;99618.95;2445658;79;25628;-71
2021/12/09 06:42:37;;;;;;;7.60;6.42;;;;;;;4.00;46.83;99622.87;2443983;80;26274;-70
2021/12/09 06:46:07;;;;;;;12.10;7.37;;;;;;;4.01;46.81;99628.90;2315576;84;25659;-71
2021/12/09 06:49:36;;;;;;;9.20;7.50;;;;;;;4.02;46.82;99640.58;2260776;85;25679;-71
2021/12/09 06:53:07;;;;;;;9.78;8.10;;;;;;;4.03;46.83;99637.59;2261112;84;25858;-74
2021/12/09 06:56:32;;;;;;;9.43;7.67;;;;;;;4.02;46.84;99635.42;2260805;86;25741;-71
2021/12/09 06:59:55;;;;;;;8.85;6.70;;;;;;;4.05;46.87;99654.01;2296026;83;25870;-71
2021/12/09 07:03:40;;;;;;;11.45;7.92;;;;;;;4.05;46.86;99656.59;2308284;85;25693;-71
2021/12/09 07:07:26;;;;;;;9.53;7.83;;;;;;;4.06;46.84;99651.02;2307224;82;25657;-73
2021/12/09 07:10:48;;;;;;;11.53;7.78;;;;;;;4.07;46.87;99647.60;2307474;84;25801;-71
2021/12/09 07:14:15;;;;;;;9.60;7.62;;;;;;;4.09;46.87;99640.40;2305756;84;25797;-72
2021/12/09 07:17:53;;;;;;;9.90;7.92;;;;;;;4.11;46.85;99654.22;2174943;89;25983;-71
2021/12/09 07:21:14;;;;;;;9.73;7.62;;;;;;;4.12;46.81;99653.42;2158687;90;25827;-71
2021/12/09 07:24:35;;;;;;;10.88;8.08;;;;;;;4.15;46.81;99651.34;2177484;90;25761;-71
2021/12/09 07:28:05;;;;;;;9.18;7.90;;;;;;;4.17;46.80;99648.00;2174291;89;25820;-71
2021/12/09 07:31:43;;;;;;;8.33;7.37;;;;;;;4.19;46.80;99648.95;2154458;89;25644;-71
2021/12/09 07:35:30;;;;;;;14.68;7.95;;;;;;;4.22;46.80;99655.94;2174762;89;25623;-70
2021/12/09 07:39:09;;;;;;;9.88;8.03;;;;;;;4.24;46.75;99652.56;2175956;90;26094;-71
2021/12/09 07:42:48;;;;;;;8.80;7.65;;;;;;;4.26;46.76;99659.96;2211674;86;25823;-70
2021/12/09 07:46:20;;;;;;;10.32;8.48;;;;;;;4.28;46.64;99661.29;2212078;87;25808;-71
2021/12/09 07:49:50;;;;;;;9.30;8.05;;;;;;;4.29;46.65;99667.33;2312818;84;25753;-72
2021/12/09 07:53:31;;;;;;;;;;;;;;;;;;;;;
2021/12/09 07:57:29;;;;;;;10.03;8.30;;;;;;;4.30;46.61;99660.08;2441203;80;25670;-72
2021/12/09 08:01:05;;;;;;;10.53;8.55;;;;;;;4.32;46.60;99658.41;2483719;79;25654;-73
2021/12/09 08:04:45;;;;;;;16.90;9.70;;;;;;;4.34;46.60;99665.81;2489660;78;26057;-72
2021/12/09 08:08:30;;;;;;;11.22;9.18;;;;;;;4.35;46.58;99662.40;2460236;79;25210;-71
2021/12/09 08:11:51;;;;;;;11.78;8.15;;;;;;;4.39;46.61;99652.69;2482881;79;25750;-74
2021/12/09 08:15:21;;;;;;;7.97;7.22;;;;;;;4.42;46.64;99633.41;2525531;77;26160;-73
2021/12/09 08:19:13;;;;;;;11.03;8.25;;;;;;;4.46;46.67;99637.88;2512216;77;26063;-74
2021/12/09 08:22:49;;;;;;;10.58;8.98;;;;;;;4.51;46.62;99637.62;2490433;79;25885;-73
2021/12/09 08:26:10;;;;;;;11.88;8.98;;;;;;;4.57;46.66;99633.09;2450106;78;25727;-72
2021/12/09 08:29:50;;;;;;;13.10;8.57;;;;;;;4.64;46.65;99628.61;2454185;79;25791;-69
2021/12/09 08:33:11;;;;;;;9.18;7.75;;;;;;;4.68;46.62;99623.60;2480840;79;25659;-71
2021/12/09 08:36:33;;;;;;;9.97;8.67;;;;;;;4.77;46.62;99633.38;2498063;79;25881;-71
2021/12/09 08:40:09;;;;;;;9.63;8.05;;;;;;;4.81;46.57;99635.66;2501141;79;26145;-72
2021/12/09 08:43:30;;;;;;;11.08;9.10;;;;;;;4.85;46.58;99642.67;2494874;78;25589;-75
2021/12/09 08:47:08;;;;;;;10.18;7.80;;;;;;;4.88;46.59;99656.57;2494030;79;25737;-73
2021/12/09 08:50:44;;;;;;;13.43;9.13;;;;;;;4.90;46.54;99661.80;2496350;79;25782;-72
2021/12/09 08:54:06;;;;;;;8.95;8.10;;;;;;;4.91;46.50;99669.59;2501181;78;25682;-72
2021/12/09 08:57:27;;;;;;;10.38;8.35;;;;;;;4.94;46.50;99673.99;2500037;78;25717;-73
2021/12/09 09:00:59;;;;;;;9.58;7.95;;;;;;;4.97;46.52;99684.02;2489324;78;26237;-73
2021/12/09 09:04:23;;;;;;;9.60;7.90;;;;;;;4.98;46.53;99677.14;2486881;79;25804;-73
2021/12/09 09:07:55;;;;;;;8.70;7.90;;;;;;;5.02;46.54;99669.95;2488634;79;25906;-73
2021/12/09 09:11:16;;;;;;;12.65;7.85;;;;;;;5.06;46.53;99662.80;2470036;79;25887;-73
2021/12/09 09:14:40;;;;;;;12.10;8.55;;;;;;;5.08;46.53;99654.67;2496084;78;25742;-73
2021/12/09 09:18:01;;;;;;;10.28;9.13;;;;;;;5.12;46.53;99655.65;2498604;77;25772;-73
2021/12/09 09:21:28;;;;;;;14.15;8.88;;;;;;;5.16;46.55;99657.12;2481870;79;25537;-73
2021/12/09 09:24:49;;;;;;;12.40;9.78;;;;;;;5.21;46.57;99659.84;2502755;78;25646;-73
2021/12/09 09:28:11;;;;;;;11.22;8.60;;;;;;;5.22;46.56;99664.17;2502388;79;25667;-73
2021/12/09 09:31:34;;;;;;;13.88;8.45;;;;;;;5.24;46.53;99656.49;2497710;79;26046;-73
2021/12/09 09:35:02;;;;;;;11.78;8.70;;;;;;;5.24;46.48;99670.28;2500819;79;25646;-75
2021/12/09 09:38:24;;;;;;;9.43;8.53;;;;;;;5.24;46.49;99684.91;2475690;79;25909;-72
2021/12/09 09:45:39;;;;;;;12.40;8.73;;;;;;;5.21;46.51;99655.97;2500071;79;25625;-74
2021/12/09 09:49:03;;;;;;;10.90;8.53;;;;;;;5.22;46.55;99664.17;2502647;79;25735;-73
2021/12/09 09:52:26;;;;;;;11.95;9.28;;;;;;;5.23;46.57;99652.13;2500096;78;26105;-76
2021/12/09 09:56:13;;;;;;;10.10;8.13;;;;;;;5.24;46.61;99656.08;2501377;78;25686;-72
2021/12/09 09:59:28;;;;;;;11.08;9.08;;;;;;;5.24;46.59;99666.83;2479751;78;25579;-71
2021/12/09 10:03:16;;;;;;;11.28;8.50;;;;;;;5.24;46.63;99653.48;2428067;81;25994;-72
2021/12/09 10:06:33;;;;;;;14.93;10.25;;;;;;;5.24;46.62;99639.70;2425282;79;26101;-71
2021/12/09 10:10:34;;;;;;;124.70;61.33;;;;;;;5.25;46.72;99628.09;2407788;81;25631;-70
2021/12/09 10:14:20;;;;;;;83.87;39.40;;;;;;;5.30;47.55;99599.42;2397696;82;25731;-71
2021/12/09 10:17:53;;;;;;;73.28;35.35;;;;;;;5.35;47.89;99572.00;2398981;81;25677;-71
2021/12/09 10:21:30;;;;;;;70.37;36.45;;;;;;;5.40;47.87;99583.77;2396436;81;25716;-73
2021/12/09 10:24:55;;;;;;;65.72;32.70;;;;;;;5.43;47.90;99600.28;2399973;81;25725;-71
2021/12/09 10:28:21;;;;;;;59.03;30.00;;;;;;;5.44;47.92;99614.08;2400495;80;25696;-72
2021/12/09 10:32:00;;;;;;;57.78;28.25;;;;;;;5.44;47.85;99615.37;2399945;81;26368;-71
2021/12/09 10:35:21;;;;;;;56.23;30.65;;;;;;;5.45;47.81;99611.53;2375615;82;25692;-71
2021/12/09 10:38:44;;;;;;;55.60;26.50;;;;;;;5.45;47.83;99594.72;2425406;81;26156;-71
2021/12/09 10:42:36;;;;;;;48.73;24.15;;;;;;;5.47;47.75;99588.33;2435587;80;25760;-72
2021/12/09 10:45:58;;;;;;;41.37;23.67;;;;;;;5.49;47.74;99611.63;2408187;81;25750;-72
2021/12/09 10:49:48;;;;;;;43.30;22.48;;;;;;;5.48;47.69;99616.34;2434096;79;25645;-72
2021/12/09 10:56:44;;;;;;;35.43;19.82;;;;;;;5.44;47.65;99624.00;2460205;80;25594;-70
2021/12/09 11:00:31;;;;;;;34.33;19.00;;;;;;;5.42;47.59;99625.64;2473059;79;25749;-71
2021/12/09 11:04:00;;;;;;;29.15;17.10;;;;;;;5.40;47.57;99616.98;2495690;79;25814;-71
2021/12/09 11:07:28;;;;;;;28.50;16.80;;;;;;;5.41;47.57;99618.73;2496132;79;25967;-72
2021/12/09 11:10:51;;;;;;;22.93;15.00;;;;;;;5.42;47.56;99604.09;2492606;79;25699;-71
2021/12/09 11:14:21;;;;;;;27.82;16.50;;;;;;;5.42;47.55;99587.29;2491576;78;25631;-72
2021/12/09 11:17:46;;;;;;;27.82;16.25;;;;;;;5.42;47.59;99579.53;2485141;79;25866;-71
2021/12/09 11:21:29;;;;;;;22.95;14.43;;;;;;;5.45;47.59;99578.34;2489880;79;26057;-69
2021/12/09 11:25:39;;;;;;;24.72;15.38;;;;;;;5.47;47.61;99563.77;2492063;79;26173;-71
2021/12/09 11:29:10;;;;;;;19.85;14.38;;;;;;;5.50;47.59;99567.74;2489188;79;25780;-72
2021/12/09 11:37:22;;;;;;;22.13;14.68;;;;;;;5.53;47.61;99543.67;2409152;80;25653;-72
2021/12/09 11:43:57;;;;;;;17.23;12.53;;;;;;;5.56;47.64;99538.17;2417940;80;25851;-71
2021/12/09 11:47:19;;;;;;;22.10;14.07;;;;;;;5.58;47.62;99528.77;2415178;81;25736;-71
2021/12/09 11:50:47;;;;;;;23.85;15.58;;;;;;;5.63;49.71;99527.17;2407875;82;25722;-71
2021/12/09 11:54:10;;;;;;;22.85;13.80;;;;;;;5.82;49.72;99548.00;2408822;81;25668;-70
2021/12/09 12:14:56;;;;;;;15.93;11.80;;;;;;;5.78;49.35;99511.67;2350552;83;26450;-70
2021/12/09 12:19:16;;;;;;;17.57;12.13;;;;;;;5.77;49.30;99497.87;2347694;83;25881;-70
2021/12/09 12:27:15;;;;;;;15.93;11.55;;;;;;;5.81;49.20;99478.14;2284946;86;25633;-71
2021/12/09 12:42:13;;;;;;;13.62;10.28;;;;;;;5.92;48.94;99480.59;2277208;86;26371;-71
2021/12/09 12:53:36;;;;;;;12.88;10.15;;;;;;;5.90;48.84;99502.95;2247222;86;25315;-72
2021/12/09 12:57:03;;;;;;;13.68;10.45;;;;;;;5.88;48.82;99496.88;2245215;86;25814;-71
2021/12/09 13:00:41;;;;;;;12.88;10.40;;;;;;;5.84;48.80;99494.62;2211890;87;25719;-71
2021/12/09 13:04:15;;;;;;;14.70;9.98;;;;;;;5.81;48.79;99483.31;2247424;87;25689;-71
2021/12/09 13:07:44;;;;;;;15.72;10.08;;;;;;;5.77;48.79;99469.81;2268930;85;26184;-70
2021/12/09 13:14:29;;;;;;;14.00;10.50;;;;;;;6.20;52.70;99473.61;2226735;87;25916;-71
2021/12/09 13:18:05;;;;;;;13.18;10.10;;;;;;;6.23;52.76;99486.64;2191299;88;26378;-72
2021/12/09 13:22:12;;;;;;;14.05;9.63;;;;;;;6.14;52.55;99489.45;2239600;86;26396;-71
2021/12/09 13:25:33;;;;;;;15.15;10.40;;;;;;;6.08;52.55;99492.28;2215928;88;25795;-71
2021/12/09 13:29:14;;;;;;;13.08;11.15;;;;;;;6.01;52.58;99501.59;2305712;82;25803;-75
2021/12/09 13:36:36;;;;;;;15.40;10.85;;;;;;;6.01;53.59;99509.78;2371337;82;26456;-72
2021/12/09 13:47:09;;;;;;;17.30;11.15;;;;;;;5.94;53.26;99489.71;2375398;82;25256;-70
2021/12/09 13:57:57;;;;;;;18.52;11.05;;;;;;;5.78;52.86;99504.78;2375036;83;25835;-72
2021/12/09 14:01:19;;;;;;;13.48;9.70;;;;;;;5.75;52.74;99480.55;2373590;83;25861;-71
2021/12/09 14:04:40;;;;;;;14.55;10.38;;;;;;;5.71;52.68;99474.41;2366856;83;25705;-71
2021/12/09 14:08:05;;;;;;;17.95;10.30;;;;;;;5.68;52.51;99479.08;2370104;83;25787;-72
2021/12/09 14:11:33;;;;;;;15.08;9.83;;;;;;;5.67;52.45;99484.22;2367122;83;25746;-70
2021/12/09 14:15:19;;;;;;;12.07;9.53;;;;;;;5.65;52.30;99466.05;2428612;81;25883;-70
2021/12/09 14:19:57;;;;;;;13.58;9.55;;;;;;;5.62;52.19;99478.89;2401616;82;25769;-72
2021/12/09 14:22:07;;;;;;;15.75;10.98;;;;;;;5.59;52.05;99474.92;2399055;82;25727;-72
2021/12/09 14:25:32;;;;;;;14.07;10.05;;;;;;;5.57;51.94;99477.90;2454793;80;25710;-71
2021/12/09 14:29:04;;;;;;;13.48;9.58;;;;;;;5.55;51.85;99492.90;2456345;80;25734;-71
2021/12/09 14:32:47;;;;;;;13.13;10.05;;;;;;;5.53;51.77;99488.09;2453794;80;25690;-72
2021/12/09 14:36:13;;;;;;;11.75;9.28;;;;;;;5.51;51.72;99490.64;2445657;80;25618;-71
2021/12/09 14:39:41;;;;;;;14.00;10.08;;;;;;;5.51;51.65;99496.23;2448627;80;26481;-72
2021/12/09 14:43:06;;;;;;;14.75;9.63;;;;;;;5.48;51.53;99494.42;2449034;80;26010;-71
2021/12/09 14:46:48;;;;;;;13.93;10.05;;;;;;;5.47;51.46;99493.07;2443855;80;25842;-71
2021/12/09 14:54:13;;;;;;;14.77;9.50;;;;;;;5.44;51.37;99502.51;2438897;79;25683;-72
2021/12/09 14:58:14;;;;;;;15.55;10.25;;;;;;;5.43;51.31;99490.81;2490653;77;25781;-71
2021/12/09 15:01:40;;;;;;;15.30;11.18;;;;;;;5.42;51.26;99504.16;2449149;77;25627;-71
2021/12/09 15:05:12;;;;;;;15.13;10.32;;;;;;;5.41;51.18;99506.71;2442699;80;25533;-71
2021/12/09 15:08:34;;;;;;;15.30;10.80;;;;;;;5.40;51.15;99497.17;2448600;78;25581;-69
2021/12/09 15:12:00;;;;;;;14.03;10.78;;;;;;;5.39;51.10;99494.14;2419228;80;25814;-73
2021/12/09 15:15:28;;;;;;;13.50;9.70;;;;;;;5.38;51.06;99499.73;2397662;81;25651;-71
2021/12/09 15:18:51;;;;;;;16.60;11.45;;;;;;;5.39;51.06;99498.02;2392075;81;26122;-71
2021/12/09 15:22:18;;;;;;;18.90;10.43;;;;;;;5.38;51.02;99497.56;2416405;80;26092;-71
2021/12/09 15:25:42;;;;;;;14.60;10.88;;;;;;;5.38;50.97;99498.86;2445006;78;25649;-75
2021/12/09 15:29:39;;;;;;;15.70;11.85;;;;;;;5.36;50.90;99484.58;2452425;80;26385;-71
2021/12/09 15:33:07;;;;;;;15.75;11.50;;;;;;;5.36;50.89;99468.20;2386433;81;26190;-70
2021/12/09 15:36:32;;;;;;;17.25;11.85;;;;;;;5.35;50.87;99467.33;2409728;81;26072;-71
2021/12/09 15:39:57;;;;;;;20.37;11.45;;;;;;;5.36;50.83;99472.08;2405292;81;27886;-72
2021/12/09 15:43:22;;;;;;;18.85;11.75;;;;;;;5.35;50.82;99468.63;2391778;81;25770;-71
2021/12/09 15:46:51;;;;;;;17.40;11.97;;;;;;;5.35;50.80;99461.30;2414611;81;26350;-71
2021/12/09 15:50:18;;;;;;;17.55;11.40;;;;;;;5.34;50.78;99464.72;2414163;77;26457;-70
2021/12/09 15:53:45;;;;;;;16.05;11.08;;;;;;;5.34;50.74;99462.13;2410988;81;25740;-72
2021/12/09 15:57:11;;;;;;;17.92;11.50;;;;;;;5.35;50.70;99438.03;2427408;81;25778;-72
2021/12/09 16:00:35;;;;;;;19.30;12.43;;;;;;;5.34;50.70;99438.88;2426459;80;25753;-72
2021/12/09 16:04:00;;;;;;;17.10;11.88;;;;;;;5.33;50.69;99430.25;2426954;80;25738;-72
2021/12/09 16:07:24;;;;;;;21.50;13.18;;;;;;;5.33;50.67;99422.50;2425498;81;26022;-71
2021/12/09 16:10:53;;;;;;;19.27;12.53;;;;;;;5.32;50.69;99443.98;2464972;79;25643;-73
2021/12/09 16:14:16;;;;;;;19.98;12.37;;;;;;;5.32;50.68;99456.90;2474954;79;31305;-71
2021/12/09 16:17:37;;;;;;;15.35;11.85;;;;;;;5.32;50.67;99450.44;2471927;78;25677;-71
2021/12/09 16:21:04;;;;;;;20.92;12.73;;;;;;;5.33;50.64;99444.46;2465270;79;26079;-72
2021/12/09 16:24:26;;;;;;;19.37;12.50;;;;;;;5.30;50.64;99446.95;2445661;79;26283;-71
2021/12/09 16:27:51;;;;;;;20.62;12.82;;;;;;;5.31;50.64;99439.66;2437420;80;25700;-73
2021/12/09 16:31:21;;;;;;;20.97;12.75;;;;;;;5.30;50.62;99440.50;2437928;80;26155;-72
2021/12/09 16:34:59;;;;;;;;;;;;;;;5.31;50.64;99435.77;2439591;79;26273;-72
2021/12/09 16:38:34;;;;;;;19.35;12.13;;;;;;;5.32;50.64;99438.81;2433572;79;26109;-73
2021/12/09 16:41:55;;;;;;;20.00;12.55;;;;;;;5.31;50.67;99442.66;2432234;79;25553;-73
2021/12/09 16:45:20;;;;;;;21.57;12.53;;;;;;;5.32;50.66;99453.45;2438865;79;25669;-72
2021/12/09 16:48:46;;;;;;;18.10;12.33;;;;;;;5.31;50.66;99457.74;2440381;80;25777;-73
2021/12/09 16:52:07;;;;;;;21.62;12.90;;;;;;;5.34;50.64;99476.34;2433436;81;25831;-72
2021/12/09 16:59:32;;;;;;;20.40;13.88;;;;;;;5.34;50.62;99473.34;2355433;82;26170;-74
2021/12/09 17:02:54;;;;;;;20.55;12.93;;;;;;;5.33;50.61;99465.14;2395359;82;25699;-71
2021/12/09 17:06:27;;;;;;;21.52;13.43;;;;;;;5.33;50.62;99474.19;2400928;82;25786;-72
2021/12/09 17:10:07;;;;;;;21.17;13.38;;;;;;;5.35;50.60;99471.62;2301835;85;25690;-74
2021/12/09 17:13:29;;;;;;;19.35;12.50;;;;;;;5.35;50.60;99449.66;2308557;85;25732;-72
2021/12/09 17:17:07;;;;;;;16.87;12.60;;;;;;;5.35;50.60;99445.78;2311163;85;25658;-72
2021/12/09 17:20:38;;;;;;;22.02;12.95;;;;;;;5.35;50.58;99435.03;2304934;82;25537;-73
2021/12/09 17:23:59;;;;;;;22.35;13.55;;;;;;;5.34;50.57;99456.55;2309931;85;25809;-74
2021/12/09 17:27:21;;;;;;;21.37;13.22;;;;;;;5.36;50.59;99453.98;2312961;84;25838;-71
2021/12/09 17:30:47;;;;;;;22.93;14.33;;;;;;;5.35;50.56;99443.20;2312762;85;26510;-73
2021/12/09 17:34:31;;;;;;;19.85;12.63;;;;;;;5.36;50.54;99443.66;2309867;84;25628;-72
2021/12/09 17:38:09;;;;;;;19.73;12.47;;;;;;;5.35;50.56;99433.73;2370851;83;25999;-72
2021/12/09 17:41:33;;;;;;;21.50;12.50;;;;;;;5.34;50.57;99433.70;2368824;83;25681;-72
2021/12/09 17:44:59;;;;;;;20.88;13.60;;;;;;;5.34;50.57;99422.95;2370567;83;25722;-72
2021/12/09 17:48:47;;;;;;;19.80;12.40;;;;;;;5.34;50.58;99422.95;2483122;79;25712;-72
2021/12/09 17:52:27;;;;;;;20.52;12.23;;;;;;;5.34;50.56;99418.20;2502292;78;25655;-70
2021/12/09 17:55:49;;;;;;;21.23;12.63;;;;;;;5.34;50.60;99424.66;2491783;79;25709;-71
2021/12/09 17:59:33;;;;;;;21.07;12.47;;;;;;;5.34;50.59;99423.37;2491981;76;25809;-72